Weather at Morrisville Armory Heliport

Public forecast

Using degrees Fahrenheit for public forecast. Weather courtesy of forecast.io.

Closest aviation weather report (METAR) to Morrisville Armory Heliport

Closest report is Morrisville-Stowe State Airport, 3.9 nm (7.2 km) WSW.

2024/07/25 09:34 (retrieved 7 minutes ago)

KMVL 250934Z AUTO 00000KT 8SM FEW002 SCT048 BKN065 19/18 A2999 RMK AO2 T01890178

Closest aviation forecast (TAF) to Morrisville Armory Heliport

Closest forecast is Edward F Knapp State Airport, 21.1 nm (39.1 km) S.

2024/07/25 06:33 (retrieved 3 hours ago)

TAF KMPV 250530Z 2506/2606 17006KT P6SM OVC012 TEMPO 2509/2512 3SM BR OVC009 FM251300 21005KT P6SM SCT020 FM251500 23006KT P6SM SCT035 FM252000 28010G17KT P6SM VCSH SCT070 FM260200 29007KT P6SM SCT025